Time;durP1;ratioP1;P1;durP2;ratioP2;P2;SDS_P1;SDS_P2;PMS_P1;PMS_P2;Temp;Humidity;BMP_temperature;BMP_pressure;BME280_temperature;BME280_humidity;BME280_pressure;Samples;Min_cycle;Max_cycle;Signal;HPM_P1;HPM_P2
2021/12/01 00:02:20;;;;;;;;;;;23.80;48.30;;;;;;5091661;28;19923;-80
2021/12/01 00:04:48;;;;;;;;;;;23.80;48.20;;;;;;5091949;28;19915;-81
2021/12/01 00:07:17;;;;;;;;;;;23.90;48.00;;;;;;5091677;28;19973;-80
2021/12/01 00:09:42;;;;;;;;;;;23.90;48.00;;;;;;5075009;28;20003;-81
2021/12/01 00:12:13;;;;;;;;;;;23.90;47.70;;;;;;5092065;28;19966;-83
2021/12/01 00:14:41;;;;;;;;;;;23.90;47.60;;;;;;5091548;28;19909;-81
2021/12/01 00:17:11;;;;;;;;;;;23.90;47.50;;;;;;5091549;28;19923;-83
2021/12/01 00:19:36;;;;;;;;;;;24.00;47.40;;;;;;5091592;28;19909;-83
2021/12/01 00:22:02;;;;;;;;;;;24.00;47.10;;;;;;5091642;28;19930;-83
2021/12/01 00:24:28;;;;;;;;;;;24.00;47.00;;;;;;5091567;28;20292;-82
2021/12/01 00:26:53;;;;;;;;;;;24.00;46.80;;;;;;5091260;28;20306;-82
2021/12/01 00:29:21;;;;;;;;;;;24.00;46.60;;;;;;5091390;28;20284;-80
2021/12/01 00:31:47;;;;;;;;;;;24.00;46.50;;;;;;5091574;28;19908;-83
2021/12/01 00:34:12;;;;;;;;;;;24.10;46.50;;;;;;5091217;28;19908;-83
2021/12/01 00:36:38;;;;;;;;;;;24.00;46.30;;;;;;5090718;28;19923;-81
2021/12/01 00:39:03;;;;;;;;;;;24.10;46.30;;;;;;5091231;28;19947;-80
2021/12/01 00:41:29;;;;;;;;;;;24.10;46.10;;;;;;5091332;28;19948;-82
2021/12/01 00:43:54;;;;;;;;;;;24.10;46.10;;;;;;5091302;28;19920;-83
2021/12/01 00:46:24;;;;;;;;;;;24.10;46.00;;;;;;5091088;28;19909;-80
2021/12/01 00:48:50;;;;;;;;;;;24.10;46.00;;;;;;5091196;28;19919;-82
2021/12/01 00:51:16;;;;;;;;;;;24.10;45.90;;;;;;5091438;28;20261;-83
2021/12/01 00:53:42;;;;;;;;;;;24.10;45.70;;;;;;5091123;28;19928;-83
2021/12/01 00:56:07;;;;;;;;;;;24.10;45.70;;;;;;5090879;28;19913;-82
2021/12/01 00:58:33;;;;;;;;;;;24.10;45.60;;;;;;5096717;28;19921;-80
2021/12/01 01:01:00;;;;;;;;;;;24.10;45.50;;;;;;5097536;28;19908;-81
2021/12/01 01:03:28;;;;;;;;;;;24.10;45.40;;;;;;5074997;28;19920;-81
2021/12/01 01:05:56;;;;;;;;;;;24.20;45.40;;;;;;5091390;28;19922;-82
2021/12/01 01:08:21;;;;;;;;;;;24.20;45.40;;;;;;5091248;28;19916;-83
2021/12/01 01:16:24;;;;;;;;;;;24.10;45.10;;;;;;5088274;28;19943;-80
2021/12/01 01:19:03;;;;;;;;;;;24.20;45.10;;;;;;5090917;28;19946;-81
2021/12/01 01:21:36;;;;;;;;;;;24.10;45.00;;;;;;5090336;28;19913;-80
2021/12/01 01:24:02;;;;;;;;;;;24.10;45.00;;;;;;5090591;28;19954;-82
2021/12/01 01:26:32;;;;;;;;;;;24.10;45.00;;;;;;5090710;28;19912;-82
2021/12/01 01:28:57;;;;;;;;;;;24.10;45.00;;;;;;5090542;28;19931;-81
2021/12/01 01:31:23;;;;;;;;;;;24.10;44.90;;;;;;5090965;28;19908;-80
2021/12/01 01:33:49;;;;;;;;;;;24.10;44.90;;;;;;5073950;28;19908;-80
2021/12/01 01:36:14;;;;;;;;;;;24.10;44.80;;;;;;5090913;28;19959;-81
2021/12/01 01:38:40;;;;;;;;;;;24.10;44.80;;;;;;5090854;28;20011;-82
2021/12/01 01:41:07;;;;;;;;;;;24.10;44.70;;;;;;5090683;28;20396;-82
2021/12/01 01:43:33;;;;;;;;;;;24.10;44.60;;;;;;5090675;28;19908;-83
2021/12/01 01:46:01;;;;;;;;;;;24.20;44.60;;;;;;5090636;28;20357;-81
2021/12/01 01:48:35;;;;;;;;;;;24.20;44.50;;;;;;5091979;28;19912;-81
2021/12/01 01:51:04;;;;;;;;;;;24.20;44.50;;;;;;5093642;28;20357;-80
2021/12/01 01:53:35;;;;;;;;;;;24.20;44.40;;;;;;5097753;28;20058;-80
2021/12/01 01:56:03;;;;;;;;;;;24.20;44.30;;;;;;5097866;28;20336;-79
2021/12/01 01:58:29;;;;;;;;;;;24.20;44.20;;;;;;5097639;28;19975;-80
2021/12/01 02:01:07;;;;;;;;;;;24.20;44.20;;;;;;5081021;28;19958;-80
2021/12/01 02:03:37;;;;;;;;;;;24.20;44.10;;;;;;5081960;28;19908;-83
2021/12/01 02:06:03;;;;;;;;;;;24.20;44.10;;;;;;5080858;28;19908;-83
2021/12/01 02:08:34;;;;;;;;;;;24.20;44.10;;;;;;5097797;28;20381;-81
2021/12/01 02:11:02;;;;;;;;;;;24.20;44.10;;;;;;5097538;28;20292;-82
2021/12/01 02:13:28;;;;;;;;;;;24.20;44.00;;;;;;5098099;28;19908;-81
2021/12/01 02:15:54;;;;;;;;;;;24.20;44.00;;;;;;5080488;28;19916;-83
2021/12/01 02:18:19;;;;;;;;;;;24.20;43.90;;;;;;5080995;28;20003;-81
2021/12/01 02:20:57;;;;;;;;;;;24.20;43.90;;;;;;5097937;28;20015;-80
2021/12/01 02:23:23;;;;;;;;;;;24.20;43.90;;;;;;5097886;28;19907;-81
2021/12/01 02:25:51;;;;;;;;;;;24.10;43.80;;;;;;5080343;28;19908;-82
2021/12/01 02:28:16;;;;;;;;;;;24.10;43.80;;;;;;5080235;28;19908;-82
2021/12/01 02:30:42;;;;;;;;;;;24.10;43.80;;;;;;5080492;28;19934;-82
2021/12/01 02:33:10;;;;;;;;;;;24.10;43.70;;;;;;5080406;28;19912;-81
2021/12/01 02:35:35;;;;;;;;;;;24.10;43.70;;;;;;5080427;28;19934;-81
2021/12/01 02:38:06;;;;;;;;;;;24.20;43.70;;;;;;5080164;28;20325;-81
2021/12/01 02:40:32;;;;;;;;;;;24.10;43.60;;;;;;5080404;28;19908;-82
2021/12/01 02:43:00;;;;;;;;;;;24.10;43.50;;;;;;5080325;28;19908;-82
2021/12/01 02:45:30;;;;;;;;;;;24.10;43.50;;;;;;5097467;28;19908;-82
2021/12/01 02:47:56;;;;;;;;;;;24.10;43.50;;;;;;5097470;28;19908;-83
2021/12/01 02:50:24;;;;;;;;;;;24.10;43.50;;;;;;5097237;28;19908;-82
2021/12/01 02:52:54;;;;;;;;;;;24.10;43.40;;;;;;5080898;28;19995;-80
2021/12/01 02:55:21;;;;;;;;;;;24.10;43.40;;;;;;5080269;28;19988;-81
2021/12/01 02:57:51;;;;;;;;;;;24.10;43.40;;;;;;5080024;28;19917;-80
2021/12/01 03:00:18;;;;;;;;;;;24.10;43.30;;;;;;5080046;28;19931;-83
2021/12/01 03:02:44;;;;;;;;;;;24.10;43.30;;;;;;5096819;28;19990;-81
2021/12/01 03:05:09;;;;;;;;;;;24.10;43.30;;;;;;5097035;28;20005;-81
2021/12/01 03:07:35;;;;;;;;;;;24.10;43.30;;;;;;5096903;28;20008;-80
2021/12/01 03:10:01;;;;;;;;;;;24.10;43.20;;;;;;5079544;28;19939;-80
2021/12/01 03:12:30;;;;;;;;;;;24.10;43.20;;;;;;5079417;28;19919;-79
2021/12/01 03:14:59;;;;;;;;;;;24.10;43.10;;;;;;5096778;28;19908;-80
2021/12/01 03:17:28;;;;;;;;;;;24.10;43.10;;;;;;5079882;28;19999;-83
2021/12/01 03:19:54;;;;;;;;;;;24.10;43.10;;;;;;5079522;28;20027;-81
2021/12/01 03:22:22;;;;;;;;;;;24.10;43.00;;;;;;5096491;28;19967;-83
2021/12/01 03:24:48;;;;;;;;;;;24.10;43.10;;;;;;5079883;28;20324;-83
2021/12/01 03:27:13;;;;;;;;;;;24.10;43.00;;;;;;5096228;28;19919;-80
2021/12/01 03:29:39;;;;;;;;;;;24.10;43.00;;;;;;5079181;28;19998;-81
2021/12/01 03:32:07;;;;;;;;;;;24.10;43.00;;;;;;5079466;28;19966;-83
2021/12/01 03:34:36;;;;;;;;;;;24.10;42.90;;;;;;5079447;28;19915;-83
2021/12/01 03:37:01;;;;;;;;;;;24.10;42.90;;;;;;5096011;28;19920;-80
2021/12/01 03:39:27;;;;;;;;;;;24.10;42.90;;;;;;5096093;28;19908;-80
2021/12/01 03:41:55;;;;;;;;;;;24.10;42.90;;;;;;5079189;28;19955;-83
2021/12/01 03:44:23;;;;;;;;;;;24.10;42.80;;;;;;5079361;28;19995;-83
2021/12/01 03:46:48;;;;;;;;;;;24.10;42.80;;;;;;5079388;28;19909;-80
2021/12/01 03:49:14;;;;;;;;;;;24.10;42.70;;;;;;5112640;28;20340;-80
2021/12/01 03:51:39;;;;;;;;;;;24.10;42.70;;;;;;5078855;28;19913;-80
2021/12/01 03:54:06;;;;;;;;;;;24.10;42.60;;;;;;5078669;28;19908;-83
2021/12/01 03:56:33;;;;;;;;;;;24.10;42.60;;;;;;5078642;28;19912;-81
2021/12/01 03:59:02;;;;;;;;;;;24.10;42.60;;;;;;5095483;28;20015;-83
2021/12/01 04:01:29;;;;;;;;;;;24.10;42.60;;;;;;5078993;28;20009;-81
2021/12/01 04:04:00;;;;;;;;;;;24.10;42.50;;;;;;5095539;28;19912;-80
2021/12/01 04:06:28;;;;;;;;;;;24.10;42.50;;;;;;5095758;28;19912;-81
2021/12/01 04:08:56;;;;;;;;;;;24.10;42.60;;;;;;5078539;28;19923;-80
2021/12/01 04:11:22;;;;;;;;;;;24.10;42.50;;;;;;5078637;28;19909;-81
2021/12/01 04:13:48;;;;;;;;;;;24.00;42.40;;;;;;5078893;28;19965;-83
2021/12/01 04:16:16;;;;;;;;;;;24.10;42.40;;;;;;5095612;28;19963;-80
2021/12/01 04:18:42;;;;;;;;;;;24.00;42.40;;;;;;5095753;28;19908;-82
2021/12/01 04:21:07;;;;;;;;;;;24.00;42.30;;;;;;5078793;28;19919;-81
2021/12/01 04:23:35;;;;;;;;;;;24.10;42.40;;;;;;5078320;28;20007;-80
2021/12/01 04:26:01;;;;;;;;;;;24.10;42.30;;;;;;5077679;28;19908;-81
2021/12/01 04:28:30;;;;;;;;;;;24.10;42.20;;;;;;5095146;28;19956;-80
2021/12/01 04:30:55;;;;;;;;;;;24.10;42.20;;;;;;5095225;28;19908;-82
2021/12/01 04:33:21;;;;;;;;;;;24.00;42.20;;;;;;5094825;28;19919;-81
2021/12/01 04:35:48;;;;;;;;;;;24.10;42.20;;;;;;5077754;28;19915;-81
2021/12/01 04:38:16;;;;;;;;;;;24.10;42.20;;;;;;5111895;28;19918;-81
2021/12/01 04:40:42;;;;;;;;;;;24.00;42.10;;;;;;5078175;28;19908;-80
2021/12/01 04:43:10;;;;;;;;;;;24.00;42.10;;;;;;5112189;28;19908;-80
2021/12/01 04:45:41;;;;;;;;;;;24.00;42.10;;;;;;5077831;28;19908;-81
2021/12/01 04:48:09;;;;;;;;;;;24.00;42.10;;;;;;5078637;28;19908;-81
2021/12/01 04:50:37;;;;;;;;;;;24.00;42.10;;;;;;5094775;28;19908;-83
2021/12/01 04:53:05;;;;;;;;;;;24.00;42.00;;;;;;5077788;28;19919;-82
2021/12/01 04:55:31;;;;;;;;;;;24.00;42.00;;;;;;5094814;28;19927;-80
2021/12/01 04:57:58;;;;;;;;;;;24.00;42.00;;;;;;5077703;28;19924;-81
2021/12/01 05:00:27;;;;;;;;;;;24.00;42.00;;;;;;5079034;28;19912;-81
2021/12/01 05:02:52;;;;;;;;;;;24.00;41.90;;;;;;5078567;28;19965;-81
2021/12/01 05:05:18;;;;;;;;;;;24.10;42.00;;;;;;5078590;28;19908;-81
2021/12/01 05:07:46;;;;;;;;;;;24.00;41.90;;;;;;5078304;28;19974;-83
2021/12/01 05:10:11;;;;;;;;;;;24.00;41.90;;;;;;5095005;28;19908;-80
2021/12/01 05:12:42;;;;;;;;;;;24.00;42.50;;;;;;5078493;28;20351;-82
2021/12/01 05:15:10;;;;;;;;;;;24.00;41.90;;;;;;5094920;28;19927;-80
2021/12/01 05:17:35;;;;;;;;;;;24.00;41.80;;;;;;5094552;28;19908;-82
2021/12/01 05:20:01;;;;;;;;;;;24.00;41.80;;;;;;5094454;28;20354;-80
2021/12/01 05:22:26;;;;;;;;;;;24.00;41.80;;;;;;5076694;28;19920;-81
2021/12/01 05:24:54;;;;;;;;;;;24.00;41.80;;;;;;5094388;28;19965;-81
2021/12/01 05:27:20;;;;;;;;;;;24.00;41.80;;;;;;5077739;28;19990;-79
2021/12/01 05:29:48;;;;;;;;;;;24.10;41.80;;;;;;5077349;28;19974;-80
2021/12/01 05:32:14;;;;;;;;;;;24.00;41.60;;;;;;5078443;28;20074;-79
2021/12/01 05:34:39;;;;;;;;;;;24.00;41.60;;;;;;5095565;28;20029;-79
2021/12/01 05:37:07;;;;;;;;;;;24.10;41.70;;;;;;5080340;28;19982;-81
2021/12/01 05:39:39;;;;;;;;;;;24.10;41.70;;;;;;5096867;28;19916;-80
2021/12/01 05:42:07;;;;;;;;;;;24.00;41.60;;;;;;5088095;28;19909;-81
2021/12/01 05:44:36;;;;;;;;;;;24.10;41.60;;;;;;5101073;28;19908;-82
2021/12/01 05:47:02;;;;;;;;;;;24.10;41.60;;;;;;5098161;28;19915;-79
2021/12/01 05:49:27;;;;;;;;;;;24.00;41.60;;;;;;5095543;28;20229;-81
2021/12/01 05:51:53;;;;;;;;;;;24.10;41.60;;;;;;5078284;28;20268;-80
2021/12/01 05:54:19;;;;;;;;;;;24.10;41.60;;;;;;5095484;28;20252;-79
2021/12/01 05:56:44;;;;;;;;;;;24.00;41.50;;;;;;5093994;28;19912;-80
2021/12/01 05:59:12;;;;;;;;;;;24.00;41.50;;;;;;5093777;28;20263;-81
2021/12/01 06:01:38;;;;;;;;;;;24.00;41.50;;;;;;5077781;28;19912;-81
2021/12/01 06:04:06;;;;;;;;;;;24.00;41.50;;;;;;5093919;28;19935;-80
2021/12/01 06:06:31;;;;;;;;;;;24.00;41.50;;;;;;5110770;28;19978;-80
2021/12/01 06:08:57;;;;;;;;;;;24.00;41.40;;;;;;5093709;28;19918;-81
2021/12/01 06:11:23;;;;;;;;;;;24.00;41.40;;;;;;5076927;28;20313;-79
2021/12/01 06:13:52;;;;;;;;;;;24.00;41.40;;;;;;5096119;28;19908;-80
2021/12/01 06:16:23;;;;;;;;;;;24.10;41.40;;;;;;5094148;28;19912;-81
2021/12/01 06:18:49;;;;;;;;;;;24.00;41.30;;;;;;5077846;28;20333;-82
2021/12/01 06:21:14;;;;;;;;;;;24.00;41.30;;;;;;5077933;28;20006;-80
2021/12/01 06:23:40;;;;;;;;;;;24.00;41.30;;;;;;5078378;28;19911;-79
2021/12/01 06:26:08;;;;;;;;;;;24.00;41.30;;;;;;5095549;28;19912;-82
2021/12/01 06:28:34;;;;;;;;;;;24.00;41.30;;;;;;5077994;28;20329;-79
2021/12/01 06:31:01;;;;;;;;;;;24.00;41.30;;;;;;5077579;28;19938;-80
2021/12/01 06:33:29;;;;;;;;;;;24.00;41.30;;;;;;5076838;28;19908;-81
2021/12/01 06:35:55;;;;;;;;;;;24.00;41.30;;;;;;5097000;28;19970;-81
2021/12/01 06:38:25;;;;;;;;;;;24.00;41.20;;;;;;5079859;28;20340;-82
2021/12/01 06:40:52;;;;;;;;;;;24.00;41.20;;;;;;5080218;28;19935;-82
2021/12/01 06:43:18;;;;;;;;;;;24.00;41.20;;;;;;5080609;28;20333;-81
2021/12/01 06:45:46;;;;;;;;;;;24.00;41.20;;;;;;5114506;28;19933;-78
2021/12/01 06:48:12;;;;;;;;;;;24.00;41.10;;;;;;5097162;28;19908;-79
2021/12/01 06:50:37;;;;;;;;;;;24.00;41.20;;;;;;5080295;28;19919;-82
2021/12/01 06:53:05;;;;;;;;;;;24.00;41.10;;;;;;5097067;28;20293;-80
2021/12/01 06:55:31;;;;;;;;;;;24.00;41.10;;;;;;5080531;28;19916;-80
2021/12/01 06:57:59;;;;;;;;;;;24.00;41.10;;;;;;5079817;28;19924;-81
2021/12/01 07:00:25;;;;;;;;;;;24.00;41.10;;;;;;5097520;28;20343;-79
2021/12/01 07:02:51;;;;;;;;;;;24.00;41.70;;;;;;5098362;28;19912;-80
2021/12/01 07:05:19;;;;;;;;;;;24.00;41.10;;;;;;5081765;28;19908;-80
2021/12/01 07:07:45;;;;;;;;;;;24.00;41.10;;;;;;5082063;28;19908;-80
2021/12/01 07:10:13;;;;;;;;;;;24.00;41.10;;;;;;5081748;28;19958;-80
2021/12/01 07:12:41;;;;;;;;;;;24.10;41.20;;;;;;5081670;28;19908;-81
2021/12/01 07:15:07;;;;;;;;;;;24.10;41.10;;;;;;5099493;28;19938;-80
2021/12/01 07:17:33;;;;;;;;;;;24.00;41.10;;;;;;5097614;28;19912;-82
2021/12/01 07:20:01;;;;;;;;;;;24.00;41.10;;;;;;5079473;28;19919;-81
2021/12/01 07:22:26;;;;;;;;;;;24.00;41.10;;;;;;5096496;28;19908;-81
2021/12/01 07:24:52;;;;;;;;;;;24.10;41.10;;;;;;5096232;28;19934;-79
2021/12/01 07:27:17;;;;;;;;;;;24.00;41.00;;;;;;5096088;28;19913;-81
2021/12/01 07:29:45;;;;;;;;;;;24.00;41.10;;;;;;5095896;28;20072;-80
2021/12/01 07:32:11;;;;;;;;;;;24.10;41.40;;;;;;5079980;28;19912;-81
2021/12/01 07:34:42;;;;;;;;;;;24.10;41.70;;;;;;5097051;28;20326;-82
2021/12/01 07:37:08;;;;;;;;;;;24.10;41.80;;;;;;5096939;28;19922;-79
2021/12/01 07:39:34;;;;;;;;;;;24.10;41.80;;;;;;5097449;28;19946;-82
2021/12/01 07:42:02;;;;;;;;;;;24.20;41.90;;;;;;5079400;28;19908;-80
2021/12/01 07:44:27;;;;;;;;;;;24.20;42.00;;;;;;5079634;28;19912;-81
2021/12/01 07:46:53;;;;;;;;;;;24.20;42.10;;;;;;5095508;28;19912;-81
2021/12/01 07:49:19;;;;;;;;;;;24.20;42.90;;;;;;5096044;28;20249;-81
2021/12/01 07:51:45;;;;;;;;;;;24.20;42.50;;;;;;5078914;28;19969;-80
2021/12/01 07:54:10;;;;;;;;;;;24.30;42.50;;;;;;5079209;28;19912;-83
2021/12/01 07:56:36;;;;;;;;;;;24.30;42.60;;;;;;5078781;28;20260;-80
2021/12/01 07:59:04;;;;;;;;;;;24.40;42.70;;;;;;5112507;28;20260;-80
2021/12/01 08:01:32;;;;;;;;;;;24.50;42.80;;;;;;5095572;28;19908;-82
2021/12/01 08:03:57;;;;;;;;;;;24.50;42.80;;;;;;5095784;28;19908;-82
2021/12/01 08:06:26;;;;;;;;;;;24.60;43.00;;;;;;5079398;28;19998;-80
2021/12/01 08:08:51;;;;;;;;;;;24.60;42.90;;;;;;5079317;28;19916;-80
2021/12/01 08:11:17;;;;;;;;;;;24.70;42.70;;;;;;5096228;28;19974;-81
2021/12/01 08:13:45;;;;;;;;;;;24.70;42.60;;;;;;5096115;28;19908;-83
2021/12/01 08:16:13;;;;;;;;;;;24.80;42.50;;;;;;5079251;28;19924;-78
2021/12/01 08:18:41;;;;;;;;;;;24.90;42.50;;;;;;5078368;28;20254;-84
2021/12/01 08:21:09;;;;;;;;;;;25.00;42.30;;;;;;5078823;28;19969;-80
2021/12/01 08:23:34;;;;;;;;;;;25.00;42.10;;;;;;5080073;28;19909;-83
2021/12/01 08:26:02;;;;;;;;;;;25.00;42.00;;;;;;5096481;28;19990;-79
2021/12/01 08:28:30;;;;;;;;;;;25.10;41.80;;;;;;5096486;28;19912;-82
2021/12/01 08:30:59;;;;;;;;;;;25.10;41.60;;;;;;5079417;28;19908;-80
2021/12/01 08:33:27;;;;;;;;;;;25.00;41.90;;;;;;5078633;28;19920;-81
2021/12/01 08:35:53;;;;;;;;;;;24.90;42.00;;;;;;5096203;28;20007;-79
2021/12/01 08:38:18;;;;;;;;;;;24.90;41.90;;;;;;5078429;28;19942;-82
2021/12/01 08:40:44;;;;;;;;;;;24.90;41.80;;;;;;5095317;28;19908;-81
2021/12/01 08:43:12;;;;;;;;;;;24.80;41.80;;;;;;5095299;28;19934;-81
2021/12/01 08:45:38;;;;;;;;;;;24.80;42.00;;;;;;5095066;28;20233;-79
2021/12/01 08:48:08;;;;;;;;;;;24.80;42.10;;;;;;5095234;28;19914;-82
2021/12/01 08:50:39;;;;;;;;;;;24.80;42.20;;;;;;5096429;28;19916;-78
2021/12/01 08:53:04;;;;;;;;;;;24.80;42.40;;;;;;5095363;28;19938;-81
2021/12/01 08:55:30;;;;;;;;;;;24.80;42.50;;;;;;5078579;28;19912;-84
2021/12/01 08:57:58;;;;;;;;;;;24.80;42.50;;;;;;5079511;28;19908;-83
2021/12/01 09:00:23;;;;;;;;;;;24.80;42.60;;;;;;5095845;28;19908;-81
2021/12/01 09:02:49;;;;;;;;;;;24.80;42.70;;;;;;5095676;28;19919;-82
2021/12/01 09:05:17;;;;;;;;;;;24.80;42.70;;;;;;5078057;28;20360;-80
2021/12/01 09:07:43;;;;;;;;;;;24.80;42.80;;;;;;5095136;28;20321;-81
2021/12/01 09:10:08;;;;;;;;;;;24.80;42.80;;;;;;5078204;28;19945;-80
2021/12/01 09:12:38;;;;;;;;;;;24.80;42.90;;;;;;5095696;28;19908;-78
2021/12/01 09:15:03;;;;;;;;;;;24.80;42.80;;;;;;5094620;28;19908;-80
2021/12/01 09:17:29;;;;;;;;;;;24.90;42.90;;;;;;5094865;28;19922;-79
2021/12/01 09:19:55;;;;;;;;;;;24.90;42.60;;;;;;5077665;28;19973;-82
2021/12/01 09:22:23;;;;;;;;;;;24.90;42.60;;;;;;5079662;28;19920;-82
2021/12/01 09:24:51;;;;;;;;;;;24.90;42.60;;;;;;5079485;28;19931;-79
2021/12/01 09:27:16;;;;;;;;;;;24.90;42.60;;;;;;5079357;28;19935;-80
2021/12/01 09:29:44;;;;;;;;;;;24.80;42.70;;;;;;5079411;28;20329;-82
2021/12/01 09:32:12;;;;;;;;;;;24.80;42.70;;;;;;5080175;28;19908;-82
2021/12/01 09:34:39;;;;;;;;;;;24.90;42.70;;;;;;5079718;28;19999;-83
2021/12/01 09:37:08;;;;;;;;;;;24.90;42.60;;;;;;5077815;28;19980;-79
2021/12/01 09:39:33;;;;;;;;;;;24.90;42.50;;;;;;5095089;28;19908;-82
2021/12/01 09:42:00;;;;;;;;;;;25.00;42.00;;;;;;5094697;28;19908;-79
2021/12/01 09:44:25;;;;;;;;;;;25.00;42.30;;;;;;5094409;28;19919;-80
2021/12/01 09:46:53;;;;;;;;;;;25.00;42.30;;;;;;5094389;28;19912;-82
2021/12/01 09:49:19;;;;;;;;;;;25.00;42.30;;;;;;5094301;28;20293;-80
2021/12/01 09:51:44;;;;;;;;;;;25.10;42.40;;;;;;5112353;28;20374;-82
2021/12/01 09:54:12;;;;;;;;;;;25.10;42.30;;;;;;5112642;28;19920;-80
2021/12/01 09:56:38;;;;;;;;;;;25.20;42.20;;;;;;5078549;28;19971;-81
2021/12/01 09:59:06;;;;;;;;;;;25.20;42.00;;;;;;5096812;28;19955;-80
2021/12/01 10:01:34;;;;;;;;;;;25.20;42.00;;;;;;5079469;28;20351;-80
2021/12/01 10:04:02;;;;;;;;;;;25.30;41.90;;;;;;5096760;28;19948;-80
2021/12/01 10:06:28;;;;;;;;;;;25.30;41.80;;;;;;5078859;28;19919;-82
2021/12/01 10:08:57;;;;;;;;;;;25.30;41.60;;;;;;5096938;28;20337;-81
2021/12/01 10:11:29;;;;;;;;;;;25.30;41.70;;;;;;5100118;28;19908;-79
2021/12/01 10:13:55;;;;;;;;;;;25.30;41.60;;;;;;5100768;28;19908;-80
2021/12/01 10:16:25;;;;;;;;;;;25.30;41.70;;;;;;5100209;28;19926;-81
2021/12/01 10:18:53;;;;;;;;;;;25.40;41.80;;;;;;5083291;28;19962;-79
2021/12/01 10:21:20;;;;;;;;;;;25.40;41.70;;;;;;5082915;28;20290;-81
2021/12/01 10:23:51;;;;;;;;;;;25.40;41.60;;;;;;5082312;28;19912;-80
2021/12/01 10:26:21;;;;;;;;;;;25.30;41.60;;;;;;5099812;28;19908;-81
2021/12/01 10:28:48;;;;;;;;;;;25.40;41.60;;;;;;5099884;28;20229;-81
2021/12/01 10:31:16;;;;;;;;;;;25.40;41.70;;;;;;5099390;28;19909;-81
2021/12/01 10:33:42;;;;;;;;;;;25.40;41.70;;;;;;5099498;28;19912;-79
2021/12/01 10:36:08;;;;;;;;;;;25.40;41.80;;;;;;5081401;28;19923;-80
2021/12/01 10:38:37;;;;;;;;;;;25.30;41.80;;;;;;5099494;28;19936;-80
2021/12/01 10:41:06;;;;;;;;;;;25.30;41.90;;;;;;5099887;28;20279;-80
2021/12/01 10:43:46;;;;;;;;;;;25.30;42.00;;;;;;5097953;28;19908;-78
2021/12/01 10:46:18;;;;;;;;;;;25.30;41.80;;;;;;5098186;28;19912;-80
2021/12/01 10:48:58;;;;;;;;;;;25.30;41.60;;;;;;5080398;28;20326;-78
2021/12/01 10:51:32;;;;;;;;;;;25.40;41.50;;;;;;5096896;28;19915;-78
2021/12/01 10:53:58;;;;;;;;;;;25.40;41.20;;;;;;5096878;28;20350;-79
2021/12/01 10:56:26;;;;;;;;;;;25.40;41.10;;;;;;5080084;28;19920;-78
2021/12/01 10:58:52;;;;;;;;;;;25.40;41.00;;;;;;5079731;28;19920;-80
2021/12/01 11:01:19;;;;;;;;;;;25.40;40.80;;;;;;5097607;28;19908;-78
2021/12/01 11:03:45;;;;;;;;;;;25.40;40.80;;;;;;5096762;28;19908;-78
2021/12/01 11:06:18;;;;;;;;;;;25.40;40.60;;;;;;5096844;28;19912;-78
2021/12/01 11:08:47;;;;;;;;;;;25.40;40.60;;;;;;5096432;28;20251;-79
2021/12/01 11:11:16;;;;;;;;;;;25.30;40.60;;;;;;5080021;28;20287;-81
2021/12/01 11:13:46;;;;;;;;;;;25.30;40.60;;;;;;5097256;28;20002;-78
2021/12/01 11:16:12;;;;;;;;;;;25.30;40.60;;;;;;5096602;28;20023;-79
2021/12/01 11:18:38;;;;;;;;;;;25.30;40.40;;;;;;5096400;28;20317;-78
2021/12/01 11:21:08;;;;;;;;;;;25.30;40.60;;;;;;5079408;28;19908;-78
2021/12/01 11:23:37;;;;;;;;;;;25.30;40.50;;;;;;5079298;28;19912;-78
2021/12/01 11:26:09;;;;;;;;;;;25.30;40.50;;;;;;5096507;28;19990;-78
2021/12/01 11:28:37;;;;;;;;;;;25.20;40.20;;;;;;5100915;28;19919;-77
2021/12/01 11:31:09;;;;;;;;;;;25.20;40.70;;;;;;5084363;28;19908;-80
2021/12/01 11:33:35;;;;;;;;;;;25.20;40.90;;;;;;5084104;28;19965;-80
2021/12/01 11:36:02;;;;;;;;;;;25.10;41.20;;;;;;5097836;28;19916;-80
2021/12/01 11:38:27;;;;;;;;;;;25.20;41.60;;;;;;5098723;28;20011;-78
2021/12/01 11:40:58;;;;;;;;;;;25.20;41.70;;;;;;5099169;28;19940;-78
2021/12/01 11:43:27;;;;;;;;;;;25.20;41.70;;;;;;5081865;28;19961;-80
2021/12/01 11:45:52;;;;;;;;;;;25.20;41.70;;;;;;5100086;28;19958;-80
2021/12/01 11:48:31;;;;;;;;;;;25.20;41.80;;;;;;5081535;28;19909;-77
2021/12/01 11:51:23;;;;;;;;;;;25.20;42.40;;;;;;5081819;28;20245;-81
2021/12/01 11:53:55;;;;;;;;;;;25.30;42.30;;;;;;5094634;28;20258;-78
2021/12/01 11:56:26;;;;;;;;;;;25.30;42.50;;;;;;5080165;28;19979;-82
2021/12/01 11:58:54;;;;;;;;;;;25.30;42.70;;;;;;5100080;28;19920;-81
2021/12/01 12:01:19;;;;;;;;;;;25.40;42.60;;;;;;5097998;28;19947;-78
2021/12/01 12:03:45;;;;;;;;;;;25.40;42.60;;;;;;5096104;28;19919;-80
2021/12/01 12:06:20;;;;;;;;;;;25.40;42.90;;;;;;5097549;28;19912;-78
2021/12/01 12:09:02;;;;;;;;;;;25.40;43.50;;;;;;5081051;28;19908;-81
2021/12/01 12:12:07;;;;;;;;;;;25.40;43.10;;;;;;5081935;28;20061;-80
2021/12/01 12:14:48;;;;;;;;;;;25.40;43.20;;;;;;5020592;28;19944;-81
2021/12/01 12:17:18;;;;;;;;;;;25.30;43.40;;;;;;5003818;28;19921;-80
2021/12/01 12:19:48;;;;;;;;;;;25.30;43.50;;;;;;5020882;28;19913;-79
2021/12/01 12:22:14;;;;;;;;;;;25.40;43.60;;;;;;5020586;28;19917;-80
2021/12/01 12:24:45;;;;;;;;;;;25.30;43.50;;;;;;5036937;28;20368;-78
2021/12/01 12:27:29;;;;;;;;;;;25.30;43.60;;;;;;5020882;28;19924;-81
2021/12/01 12:29:57;;;;;;;;;;;25.30;43.60;;;;;;5020649;28;19913;-79
2021/12/01 12:32:24;;;;;;;;;;;25.30;43.60;;;;;;5002424;28;19952;-79
2021/12/01 12:34:53;;;;;;;;;;;25.30;43.70;;;;;;5002800;28;20004;-80
2021/12/01 12:37:24;;;;;;;;;;;25.30;43.80;;;;;;5019917;28;19913;-79
2021/12/01 12:39:51;;;;;;;;;;;25.30;43.80;;;;;;5022692;28;19909;-78
2021/12/01 12:42:17;;;;;;;;;;;25.30;43.60;;;;;;5020907;28;19920;-82
2021/12/01 12:44:49;;;;;;;;;;;25.40;43.40;;;;;;5020795;28;19908;-83
2021/12/01 12:47:19;;;;;;;;;;;25.30;43.40;;;;;;5078244;28;19907;-82
2021/12/01 12:49:51;;;;;;;;;;;25.30;43.60;;;;;;5079113;28;19918;-83
2021/12/01 12:52:26;;;;;;;;;;;25.30;43.70;;;;;;5079058;28;20260;-79
2021/12/01 12:54:58;;;;;;;;;;;25.40;43.70;;;;;;5096916;28;19959;-81
2021/12/01 12:57:26;;;;;;;;;;;25.30;43.70;;;;;;5095024;28;19916;-79
2021/12/01 13:00:28;;;;;;;;;;;25.40;43.80;;;;;;5079202;28;19920;-79
2021/12/01 13:02:54;;;;;;;;;;;25.40;43.80;;;;;;5036544;28;19921;-80
2021/12/01 13:05:38;;;;;;;;;;;25.40;43.70;;;;;;5064595;28;19915;-78
2021/12/01 13:08:22;;;;;;;;;;;25.30;43.80;;;;;;5097714;28;19908;-79
2021/12/01 13:10:48;;;;;;;;;;;25.40;43.80;;;;;;5098218;28;19908;-79
2021/12/01 13:13:19;;;;;;;;;;;25.30;43.80;;;;;;5081428;28;19908;-78
2021/12/01 13:15:46;;;;;;;;;;;25.40;43.90;;;;;;5097074;28;20248;-79
2021/12/01 13:18:21;;;;;;;;;;;25.30;43.90;;;;;;5080131;28;19952;-78
2021/12/01 13:20:48;;;;;;;;;;;25.30;44.10;;;;;;5081475;28;19908;-80
2021/12/01 13:23:15;;;;;;;;;;;25.30;44.10;;;;;;5082174;28;19915;-82
2021/12/01 13:26:03;;;;;;;;;;;25.30;44.00;;;;;;5079110;28;20411;-80
2021/12/01 13:28:39;;;;;;;;;;;25.30;44.30;;;;;;5097407;28;20252;-79
2021/12/01 13:31:27;;;;;;;;;;;25.30;44.30;;;;;;5097055;28;19919;-81
2021/12/01 13:33:53;;;;;;;;;;;25.30;44.30;;;;;;5087300;28;19908;-80
2021/12/01 13:36:19;;;;;;;;;;;25.30;44.60;;;;;;5096242;28;19912;-78
2021/12/01 13:38:45;;;;;;;;;;;25.30;44.60;;;;;;5095311;28;19909;-81
2021/12/01 13:41:14;;;;;;;;;;;25.30;44.50;;;;;;5078065;28;20005;-81
2021/12/01 13:43:43;;;;;;;;;;;25.30;44.60;;;;;;5078163;28;19908;-78
2021/12/01 13:46:08;;;;;;;;;;;25.20;44.60;;;;;;5082461;28;19919;-79
2021/12/01 13:48:37;;;;;;;;;;;25.30;44.60;;;;;;5099972;28;19908;-79
2021/12/01 13:51:10;;;;;;;;;;;25.30;44.70;;;;;;5099837;28;19908;-85
2021/12/01 13:53:36;;;;;;;;;;;25.30;44.70;;;;;;5083184;28;19912;-84
2021/12/01 13:56:10;;;;;;;;;;;25.30;44.70;;;;;;5099331;28;19913;-79
2021/12/01 13:58:38;;;;;;;;;;;25.30;44.70;;;;;;5081602;28;19920;-79
2021/12/01 14:01:06;;;;;;;;;;;25.30;44.70;;;;;;5080991;28;20264;-84
2021/12/01 14:03:32;;;;;;;;;;;25.30;44.70;;;;;;5082402;28;19915;-83
2021/12/01 14:06:04;;;;;;;;;;;25.30;44.70;;;;;;5081612;28;19908;-82
2021/12/01 14:08:29;;;;;;;;;;;25.30;44.70;;;;;;5082049;28;19908;-81
2021/12/01 14:11:06;;;;;;;;;;;25.30;44.70;;;;;;5099404;28;19908;-86
2021/12/01 14:13:34;;;;;;;;;;;25.30;44.40;;;;;;5099952;28;20280;-84
2021/12/01 14:16:02;;;;;;;;;;;25.30;44.30;;;;;;5080957;28;20019;-84
2021/12/01 14:18:29;;;;;;;;;;;25.30;44.10;;;;;;5081438;28;19914;-84
2021/12/01 14:21:11;;;;;;;;;;;25.30;44.00;;;;;;5080830;28;19912;-84
2021/12/01 14:23:39;;;;;;;;;;;25.30;43.90;;;;;;5080915;28;19912;-83
2021/12/01 14:26:04;;;;;;;;;;;25.30;43.80;;;;;;5080676;28;20006;-83
2021/12/01 14:28:32;;;;;;;;;;;25.30;43.70;;;;;;5080575;28;20001;-83